Time;durP1;ratioP1;P1;durP2;ratioP2;P2;SDS_P1;SDS_P2;PMS_P1;PMS_P2;Temp;Humidity;BMP_temperature;BMP_pressure;BME280_temperature;BME280_humidity;BME280_pressure;Samples;Min_cycle;Max_cycle;Signal;HPM_P1;HPM_P2
2022/07/31 05:22:47;;;;;;;0.32;0.20;;;17.90;99.90;;;;;;4906952;29;20064;-93
2022/07/31 06:36:48;;;;;;;0.08;0.08;;;18.40;99.90;;;;;;4881672;29;20052;-88
2022/07/31 06:39:14;;;;;;;0.32;0.22;;;18.40;99.90;;;;;;4850745;29;20049;-88
2022/07/31 06:41:43;;;;;;;0.22;0.20;;;18.40;99.90;;;;;;4831378;29;20100;-88
2022/07/31 06:44:10;;;;;;;0.73;0.40;;;18.40;99.90;;;;;;4859177;29;20074;-88
2022/07/31 06:46:35;;;;;;;;;;;18.50;99.90;;;;;;4863383;29;20053;-87
2022/07/31 06:49:01;;;;;;;0.90;0.20;;;18.50;99.90;;;;;;4860365;29;19924;-89
2022/07/31 06:51:27;;;;;;;0.63;0.30;;;18.60;99.90;;;;;;4856466;29;20105;-87
2022/07/31 06:53:53;;;;;;;0.93;0.30;;;18.60;99.90;;;;;;4833756;29;20465;-84
2022/07/31 06:56:18;;;;;;;0.75;0.38;;;18.60;99.90;;;;;;4845602;29;20049;-86
2022/07/31 06:58:44;;;;;;;0.30;0.30;;;18.60;99.90;;;;;;4858768;29;20049;-90
2022/07/31 07:01:10;;;;;;;0.90;0.47;;;18.60;99.90;;;;;;4871742;29;20052;-87
2022/07/31 07:03:36;;;;;;;0.28;0.28;;;18.60;99.90;;;;;;4843984;29;20054;-87
2022/07/31 07:06:02;;;;;;;0.30;0.30;;;18.70;99.90;;;;;;4847561;29;20057;-88
2022/07/31 07:08:28;;;;;;;0.30;0.30;;;18.70;99.90;;;;;;4871703;29;20308;-87
2022/07/31 07:10:54;;;;;;;0.80;0.30;;;18.70;99.90;;;;;;4846922;29;20049;-90
2022/07/31 07:13:20;;;;;;;0.30;0.30;;;18.80;99.90;;;;;;4861035;29;20100;-91
2022/07/31 07:15:48;;;;;;;0.65;0.30;;;18.80;99.90;;;;;;4856792;29;20136;-92
2022/07/31 07:18:14;;;;;;;0.28;0.20;;;18.80;99.90;;;;;;4833610;29;20049;-88
2022/07/31 07:20:48;;;;;;;0.38;0.38;;;18.80;99.90;;;;;;4848140;29;20052;-94
2022/07/31 07:23:20;;;;;;;0.47;0.35;;;18.80;99.90;;;;;;4833694;29;20041;-88
2022/07/31 07:25:48;;;;;;;0.45;0.25;;;18.80;99.90;;;;;;4832500;29;20060;-94
2022/07/31 07:28:15;;;;;;;0.20;0.20;;;18.80;99.90;;;;;;4830933;29;20500;-91
2022/07/31 07:30:41;;;;;;;0.22;0.22;;;18.80;99.90;;;;;;4847770;29;20093;-89
2022/07/31 07:36:59;;;;;;;0.10;0.10;;;18.70;99.90;;;;;;4851882;29;20048;-93
2022/07/31 07:39:27;;;;;;;0.57;0.38;;;19.00;99.90;;;;;;4845328;29;20069;-92
2022/07/31 07:42:19;;;;;;;0.30;0.30;;;19.00;99.90;;;;;;4844774;29;20069;-96
2022/07/31 07:45:34;;;;;;;0.20;0.20;;;19.50;99.90;;;;;;4843846;29;20093;-92
2022/07/31 07:48:00;;;;;;;0.45;0.28;;;19.10;99.90;;;;;;4829729;29;20056;-94
2022/07/31 07:50:26;;;;;;;0.30;0.30;;;19.20;99.90;;;;;;4831100;29;20057;-93
2022/07/31 07:53:14;;;;;;;0.45;0.38;;;19.20;99.90;;;;;;4842862;29;20059;-94
2022/07/31 07:55:52;;;;;;;0.13;0.13;;;19.20;99.90;;;;;;4843825;29;20109;-93
2022/07/31 07:58:18;;;;;;;0.93;0.43;;;19.20;99.90;;;;;;4840189;29;20575;-92
2022/07/31 08:00:44;;;;;;;0.28;0.28;;;19.30;99.90;;;;;;4845610;29;20136;-91
2022/07/31 08:03:20;;;;;;;;;;;;;;;;;;;;;
2022/07/31 08:10:08;;;;;;;0.52;0.40;;;19.50;99.90;;;;;;4861895;29;20094;-96
2022/07/31 08:16:15;;;;;;;0.40;0.30;;;19.70;99.90;;;;;;4863504;29;20048;-95
2022/07/31 08:18:41;;;;;;;0.22;0.22;;;19.70;99.90;;;;;;4848103;29;20057;-94
2022/07/31 08:21:06;;;;;;;0.90;0.43;;;19.70;99.90;;;;;;4845649;29;20055;-86
2022/07/31 08:23:49;;;;;;;0.38;0.38;;;19.80;99.90;;;;;;4847988;29;20128;-92
2022/07/31 08:26:18;;;;;;;0.40;0.40;;;19.00;99.90;;;;;;4854212;29;20128;-92
2022/07/31 08:28:48;;;;;;;0.38;0.38;;;19.60;99.90;;;;;;4833576;29;20080;-95
2022/07/31 08:31:33;;;;;;;0.30;0.30;;;19.30;99.90;;;;;;4820476;29;20054;-93
2022/07/31 08:34:05;;;;;;;0.40;0.20;;;19.90;99.90;;;;;;4828197;29;20050;-96
2022/07/31 08:36:36;;;;;;;0.47;0.47;;;19.90;99.90;;;;;;4834151;29;20053;-93
2022/07/31 08:42:11;;;;;;;0.50;0.50;;;20.00;99.90;;;;;;4819975;29;20110;-89
2022/07/31 08:44:41;;;;;;;0.70;0.60;;;20.00;99.90;;;;;;4849440;29;20048;-94
2022/07/31 08:47:08;;;;;;;0.55;0.55;;;20.00;99.90;;;;;;4847810;29;20501;-94
2022/07/31 08:49:44;;;;;;;0.60;0.40;;;19.90;99.90;;;;;;4844048;29;20049;-92
2022/07/31 08:52:20;;;;;;;0.30;0.30;;;20.00;99.90;;;;;;4846703;29;20086;-94
2022/07/31 08:54:48;;;;;;;0.20;0.20;;;19.90;99.90;;;;;;4833755;29;20654;-94
2022/07/31 08:57:16;;;;;;;0.25;0.25;;;20.00;99.90;;;;;;4833943;29;20073;-95
2022/07/31 08:59:45;;;;;;;0.57;0.30;;;19.90;99.90;;;;;;4847475;29;20053;-91
2022/07/31 09:02:15;;;;;;;0.30;0.30;;;20.00;99.90;;;;;;4848516;29;20053;-91
2022/07/31 09:08:14;;;;;;;0.75;0.40;;;20.00;99.90;;;;;;4851266;29;20113;-92
2022/07/31 09:11:01;;;;;;;0.50;0.20;;;20.00;99.90;;;;;;4833311;29;20049;-92
2022/07/31 09:13:27;;;;;;;0.40;0.40;;;20.40;99.90;;;;;;4838229;29;20049;-94
2022/07/31 09:16:01;;;;;;;0.10;0.10;;;19.80;99.90;;;;;;4849815;29;20493;-93
2022/07/31 09:19:04;;;;;;;0.32;0.32;;;19.80;99.90;;;;;;4864606;29;20408;-95
2022/07/31 09:21:41;;;;;;;0.55;0.30;;;19.90;99.90;;;;;;4848333;29;20041;-96
2022/07/31 09:24:46;;;;;;;0.30;0.30;;;19.80;99.90;;;;;;4841503;29;20050;-96
2022/07/31 09:29:48;;;;;;;0.32;0.32;;;19.80;99.90;;;;;;5149178;23;20424;-95
2022/07/31 09:32:16;;;;;;;0.20;0.20;;;19.80;99.90;;;;;;4854851;29;20045;-96
2022/07/31 09:34:45;;;;;;;0.30;0.30;;;19.70;99.90;;;;;;4838881;29;20041;-94
2022/07/31 09:37:24;;;;;;;0.22;0.20;;;19.70;99.90;;;;;;4851660;29;20064;-95
2022/07/31 09:39:58;;;;;;;0.47;0.20;;;19.70;99.90;;;;;;4839987;29;20046;-95
2022/07/31 09:42:59;;;;;;;0.30;0.28;;;19.70;99.90;;;;;;4850140;29;20045;-95
2022/07/31 09:45:27;;;;;;;0.30;0.30;;;19.70;99.90;;;;;;4876505;29;20050;-96
2022/07/31 09:48:04;;;;;;;0.60;0.30;;;18.60;99.90;;;;;;5022086;24;20087;-95
2022/07/31 09:50:39;;;;;;;0.52;0.20;;;19.90;99.90;;;;;;4847632;29;20054;-91
2022/07/31 09:53:05;;;;;;;0.77;0.30;;;19.80;99.90;;;;;;4837206;29;20052;-93
2022/07/31 09:55:31;;;;;;;;;;;19.60;99.90;;;;;;4832851;29;20100;-95
2022/07/31 09:58:19;;;;;;;0.63;0.50;;;19.60;99.90;;;;;;4846986;29;19931;-95
2022/07/31 10:01:14;;;;;;;0.45;0.20;;;19.60;99.90;;;;;;4828525;29;20061;-93
2022/07/31 10:04:06;;;;;;;0.32;0.30;;;19.70;99.90;;;;;;4842638;29;20541;-95
2022/07/31 10:07:26;;;;;;;;;;;;;;;;;;;;;
2022/07/31 10:14:48;;;;;;;;;;;;;;;;;;;;;
2022/07/31 10:26:17;;;;;;;0.28;0.28;;;19.50;99.90;;;;;;4648029;30;20518;-91
2022/07/31 10:28:54;;;;;;;0.43;0.25;;;19.30;99.90;;;;;;4634007;30;20145;-91
2022/07/31 10:31:20;;;;;;;0.77;0.30;;;19.50;99.90;;;;;;4663381;30;20086;-96
2022/07/31 10:33:46;;;;;;;0.55;0.45;;;19.50;99.90;;;;;;4757672;29;20246;-89
2022/07/31 10:37:02;;;;;;;0.32;0.32;;;18.90;99.90;;;;;;4812324;29;20100;-91
2022/07/31 10:40:07;;;;;;;0.35;0.30;;;19.50;99.90;;;;;;4821499;29;20081;-91
2022/07/31 10:45:55;;;;;;;0.20;0.20;;;19.40;99.90;;;;;;4833919;29;20132;-90
2022/07/31 10:52:11;;;;;;;0.50;0.43;;;19.50;99.90;;;;;;4766715;30;20063;-93
2022/07/31 11:10:22;;;;;;;0.52;0.43;;;18.90;99.90;;;;;;4647764;30;20071;-91
2022/07/31 11:13:24;;;;;;;0.68;0.40;;;18.80;99.90;;;;;;4665497;30;20542;-90
2022/07/31 11:16:04;;;;;;;0.60;0.50;;;19.30;99.90;;;;;;4739648;30;20116;-94
2022/07/31 11:18:32;;;;;;;1.00;0.35;;;19.20;99.90;;;;;;4773285;30;20074;-95
2022/07/31 11:21:00;;;;;;;0.60;0.30;;;19.20;99.90;;;;;;4782699;29;20057;-94
2022/07/31 11:23:36;;;;;;;0.57;0.20;;;19.20;99.90;;;;;;4825692;29;20121;-93
2022/07/31 11:26:06;;;;;;;0.20;0.20;;;18.70;99.90;;;;;;4826569;29;20053;-93
2022/07/31 11:28:43;;;;;;;0.22;0.22;;;19.30;99.90;;;;;;4825439;29;20126;-88
2022/07/31 11:31:29;;;;;;;0.68;0.40;;;19.20;99.90;;;;;;4825446;29;20130;-93
2022/07/31 11:34:04;;;;;;;0.55;0.50;;;19.20;99.90;;;;;;4824031;29;20061;-93
2022/07/31 11:36:32;;;;;;;0.63;0.50;;;18.40;99.90;;;;;;4842654;29;20052;-92
2022/07/31 11:39:11;;;;;;;;;;;;;;;;;;;;;
2022/07/31 11:41:49;;;;;;;0.85;0.43;;;19.20;99.90;;;;;;4840328;29;20053;-94
2022/07/31 11:44:20;;;;;;;1.10;0.47;;;19.20;99.90;;;;;;4825973;29;20104;-93
2022/07/31 11:47:07;;;;;;;0.82;0.40;;;19.20;99.90;;;;;;4826296;29;20110;-91
2022/07/31 11:49:37;;;;;;;1.40;0.47;;;19.10;99.90;;;;;;4826798;29;20057;-95
2022/07/31 12:20:41;;;;;;;0.95;0.30;;;18.50;99.90;;;;;;5236514;23;20497;-91
2022/07/31 12:23:07;;;;;;;0.22;0.22;;;17.50;99.90;;;;;;4793043;29;20103;-93
2022/07/31 12:26:01;;;;;;;0.30;0.30;;;18.40;99.90;;;;;;4822791;29;20459;-93
2022/07/31 12:28:29;;;;;;;0.40;0.40;;;18.50;99.90;;;;;;4822184;29;20074;-93
2022/07/31 12:31:03;;;;;;;0.40;0.40;;;18.40;99.90;;;;;;4834348;29;20042;-91
2022/07/31 12:33:44;;;;;;;0.85;0.47;;;18.40;99.90;;;;;;4825033;29;20049;-92
2022/07/31 12:36:15;;;;;;;0.90;0.55;;;18.50;99.90;;;;;;4843666;29;20049;-91
2022/07/31 12:38:40;;;;;;;0.70;0.60;;;18.50;99.90;;;;;;4847993;29;20130;-89
2022/07/31 12:41:07;;;;;;;1.67;1.00;;;18.50;99.90;;;;;;4859301;29;20050;-94
2022/07/31 12:43:35;;;;;;;1.35;0.55;;;18.40;99.90;;;;;;4862163;29;20087;-93
2022/07/31 12:46:04;;;;;;;1.02;0.80;;;18.50;99.90;;;;;;4815658;29;20132;-95
2022/07/31 12:48:32;;;;;;;0.40;0.40;;;18.50;99.90;;;;;;4812939;29;20056;-92
2022/07/31 12:50:59;;;;;;;0.73;0.50;;;18.50;99.90;;;;;;4845534;29;20042;-93
2022/07/31 12:53:29;;;;;;;1.48;0.55;;;18.60;99.90;;;;;;4846375;29;20045;-93
2022/07/31 12:55:58;;;;;;;0.68;0.40;;;18.90;99.90;;;;;;4831674;29;20193;-95
2022/07/31 12:58:24;;;;;;;0.75;0.30;;;18.60;99.90;;;;;;4833023;29;20045;-96
2022/07/31 13:00:55;;;;;;;1.20;0.30;;;18.60;99.90;;;;;;4817657;29;20057;-92
2022/07/31 13:03:22;;;;;;;1.73;0.40;;;18.60;99.90;;;;;;4813205;29;20088;-90
2022/07/31 13:09:18;;;;;;;0.65;0.60;;;18.50;99.90;;;;;;4854927;29;20097;-89
2022/07/31 13:11:44;;;;;;;0.65;0.30;;;18.60;99.90;;;;;;4830642;29;20057;-91
2022/07/31 13:14:14;;;;;;;0.75;0.40;;;18.60;99.90;;;;;;4829537;29;20081;-90
2022/07/31 13:16:43;;;;;;;0.77;0.50;;;18.60;99.90;;;;;;4833882;29;20042;-92
2022/07/31 13:19:13;;;;;;;0.57;0.55;;;18.60;99.90;;;;;;4830806;29;20049;-90
2022/07/31 13:21:45;;;;;;;1.33;1.05;;;18.00;99.90;;;;;;4831116;29;20117;-90
2022/07/31 13:24:22;;;;;;;1.13;0.52;;;18.50;99.90;;;;;;4833343;29;20564;-96
2022/07/31 13:26:50;;;;;;;1.27;0.75;;;18.50;99.90;;;;;;4831978;29;20042;-91
2022/07/31 13:29:19;;;;;;;0.73;0.30;;;18.50;99.90;;;;;;4843495;29;20046;-96
2022/07/31 13:31:57;;;;;;;;;;;;;;;;;;;;;
2022/07/31 13:34:51;;;;;;;1.23;0.52;;;18.50;99.90;;;;;;4857769;29;20129;-93
2022/07/31 13:37:17;;;;;;;0.82;0.43;;;18.60;99.90;;;;;;4810978;29;20049;-91
2022/07/31 13:39:46;;;;;;;0.75;0.43;;;18.60;99.90;;;;;;4829386;29;20042;-90
2022/07/31 13:42:12;;;;;;;1.20;0.45;;;18.60;99.90;;;;;;4828721;29;20489;-88
2022/07/31 13:44:37;;;;;;;1.83;0.57;;;18.60;99.90;;;;;;4840618;29;20056;-92
2022/07/31 13:47:03;;;;;;;0.50;0.50;;;18.60;99.90;;;;;;4828469;29;20059;-94
2022/07/31 13:49:39;;;;;;;1.33;0.50;;;18.50;99.90;;;;;;4832093;29;20102;-94
2022/07/31 13:52:05;;;;;;;1.45;0.30;;;18.60;99.90;;;;;;4830297;29;20064;-87
2022/07/31 13:54:33;;;;;;;0.40;0.40;;;18.60;99.90;;;;;;4826680;29;20049;-90
2022/07/31 13:57:04;;;;;;;0.82;0.43;;;18.60;99.90;;;;;;4812605;29;20089;-91
2022/07/31 14:03:45;;;;;;;0.55;0.20;;;18.60;99.90;;;;;;4843777;29;20037;-91
2022/07/31 14:13:45;;;;;;;0.43;0.20;;;18.80;99.90;;;;;;4843553;29;20046;-90
2022/07/31 14:16:12;;;;;;;0.20;0.20;;;18.90;99.90;;;;;;4804884;29;20037;-89
2022/07/31 14:18:37;;;;;;;0.35;0.10;;;18.90;99.90;;;;;;4811551;29;20055;-89
2022/07/31 14:21:06;;;;;;;1.07;0.20;;;18.90;99.90;;;;;;4812721;29;20061;-88
2022/07/31 14:23:32;;;;;;;0.03;0.03;;;19.00;99.90;;;;;;4858209;29;20306;-87
2022/07/31 14:25:57;;;;;;;0.63;0.20;;;19.00;99.90;;;;;;4854242;29;20512;-89
2022/07/31 14:28:24;;;;;;;0.52;0.40;;;19.10;99.90;;;;;;4866529;29;20046;-88
2022/07/31 14:30:50;;;;;;;0.30;0.13;;;19.10;99.90;;;;;;4840180;29;20053;-87
2022/07/31 14:33:16;;;;;;;0.05;0.05;;;19.20;99.90;;;;;;4838464;29;20056;-86
2022/07/31 14:35:41;;;;;;;0.32;0.13;;;19.20;99.90;;;;;;4861002;29;20057;-88
2022/07/31 14:38:07;;;;;;;0.38;0.22;;;19.30;99.90;;;;;;4842776;29;20045;-86
2022/07/31 14:40:33;;;;;;;0.15;0.13;;;19.30;99.90;;;;;;4825687;29;20058;-86
2022/07/31 14:42:59;;;;;;;0.10;0.10;;;19.40;99.90;;;;;;4852547;29;20085;-87
2022/07/31 14:45:25;;;;;;;0.13;0.03;;;19.50;99.90;;;;;;4824980;29;20084;-87
2022/07/31 14:47:54;;;;;;;0.10;0.10;;;19.50;99.90;;;;;;4840392;29;20057;-91
2022/07/31 14:50:20;;;;;;;0.10;0.10;;;20.50;99.90;;;;;;4824613;29;20072;-86
2022/07/31 14:52:46;;;;;;;0.90;0.20;;;19.50;99.90;;;;;;4842321;29;20053;-86
2022/07/31 14:55:13;;;;;;;0.43;0.40;;;19.50;99.90;;;;;;4852814;29;20137;-88
2022/07/31 14:57:41;;;;;;;0.30;0.10;;;19.60;99.90;;;;;;4841439;29;20045;-87
2022/07/31 15:00:14;;;;;;;0.20;0.10;;;19.50;99.90;;;;;;4828643;29;20053;-88
2022/07/31 15:02:42;;;;;;;0.17;0.17;;;19.60;99.90;;;;;;4827896;29;20565;-88
2022/07/31 15:05:09;;;;;;;0.32;0.20;;;19.60;99.90;;;;;;4841296;29;20053;-87
2022/07/31 15:07:35;;;;;;;0.20;0.10;;;19.60;99.90;;;;;;4841966;29;20480;-87
2022/07/31 15:10:03;;;;;;;0.00;0.00;;;19.60;99.90;;;;;;4843727;29;20109;-86
2022/07/31 15:12:28;;;;;;;0.15;0.10;;;19.70;99.90;;;;;;4835748;29;20120;-88
2022/07/31 15:14:54;;;;;;;0.10;0.10;;;19.80;99.90;;;;;;4828143;29;20136;-88
2022/07/31 15:17:20;;;;;;;0.17;0.15;;;19.80;99.90;;;;;;4851178;29;20058;-87
2022/07/31 15:19:45;;;;;;;0.13;0.13;;;19.90;99.90;;;;;;4856879;29;20050;-90
2022/07/31 15:22:11;;;;;;;0.00;0.00;;;19.90;99.90;;;;;;4853760;29;20417;-88
2022/07/31 15:24:37;;;;;;;0.43;0.17;;;19.90;99.90;;;;;;4859383;29;20129;-87
2022/07/31 15:27:03;;;;;;;0.25;0.13;;;19.90;99.90;;;;;;4837941;29;20555;-87
2022/07/31 15:29:28;;;;;;;0.10;0.10;;;19.90;99.90;;;;;;4820649;29;20113;-87
2022/07/31 15:31:57;;;;;;;0.20;0.20;;;19.80;99.90;;;;;;4826505;29;20096;-91
2022/07/31 15:34:23;;;;;;;0.32;0.10;;;19.80;99.90;;;;;;4844637;29;20045;-87
2022/07/31 15:36:49;;;;;;;0.10;0.10;;;19.70;99.90;;;;;;4849838;29;20057;-88
2022/07/31 15:39:14;;;;;;;0.05;0.00;;;19.70;99.90;;;;;;4853645;29;20053;-90
2022/07/31 15:41:40;;;;;;;0.20;0.20;;;19.60;99.90;;;;;;4831368;29;20045;-87
2022/07/31 15:44:06;;;;;;;0.17;0.17;;;19.60;99.90;;;;;;4834006;29;20052;-86
2022/07/31 15:46:32;;;;;;;0.07;0.07;;;19.50;99.90;;;;;;4852222;29;20423;-86
2022/07/31 15:48:57;;;;;;;0.20;0.20;;;19.50;99.90;;;;;;4856803;29;20310;-89
2022/07/31 15:51:23;;;;;;;0.13;0.13;;;19.50;99.90;;;;;;4816334;29;20053;-86
2022/07/31 15:53:48;;;;;;;0.57;0.20;;;19.50;99.90;;;;;;4830932;29;20378;-89
2022/07/31 15:56:14;;;;;;;0.17;0.17;;;19.50;99.90;;;;;;4816885;29;20081;-87
2022/07/31 15:58:43;;;;;;;0.38;0.28;;;18.70;99.90;;;;;;4836432;29;20061;-88
2022/07/31 16:01:08;;;;;;;0.10;0.10;;;19.40;99.90;;;;;;4837425;29;20181;-90
2022/07/31 16:03:34;;;;;;;0.10;0.10;;;19.40;99.90;;;;;;4846091;29;20121;-89
2022/07/31 16:06:00;;;;;;;0.17;0.10;;;19.30;99.90;;;;;;4839258;29;20493;-92
2022/07/31 16:08:35;;;;;;;0.00;0.00;;;19.40;99.90;;;;;;4816168;29;20053;-90
2022/07/31 16:11:01;;;;;;;0.10;0.10;;;18.40;99.90;;;;;;4849387;29;20056;-90
2022/07/31 16:13:27;;;;;;;0.00;0.00;;;19.40;99.90;;;;;;4846113;29;20042;-90
2022/07/31 16:15:53;;;;;;;;;;;19.40;99.90;;;;;;4846205;29;20079;-94
2022/07/31 16:18:19;;;;;;;0.52;0.25;;;19.40;99.90;;;;;;4830838;29;19963;-89
2022/07/31 16:20:47;;;;;;;0.20;0.10;;;19.30;99.90;;;;;;4827391;29;20104;-92
2022/07/31 16:23:13;;;;;;;0.10;0.10;;;19.30;99.90;;;;;;4839347;29;20125;-90
2022/07/31 16:25:42;;;;;;;0.03;0.03;;;19.20;99.90;;;;;;4842952;29;20121;-89
2022/07/31 16:28:08;;;;;;;0.25;0.10;;;19.20;99.90;;;;;;4815828;29;20056;-91
2022/07/31 16:30:54;;;;;;;0.10;0.10;;;19.30;99.90;;;;;;4829828;29;20050;-91
2022/07/31 16:33:20;;;;;;;0.10;0.10;;;19.20;99.90;;;;;;4851054;29;20045;-90
2022/07/31 16:35:46;;;;;;;0.17;0.10;;;19.30;99.90;;;;;;4852045;29;20048;-93
2022/07/31 16:38:12;;;;;;;1.85;0.10;;;19.30;99.90;;;;;;4845315;29;20113;-92
2022/07/31 16:40:40;;;;;;;0.00;0.00;;;19.20;99.90;;;;;;4827895;29;20094;-92
2022/07/31 16:43:06;;;;;;;0.05;0.05;;;19.30;99.90;;;;;;4860330;29;20114;-95
2022/07/31 16:45:34;;;;;;;0.20;0.00;;;19.30;99.90;;;;;;4825038;29;20124;-96
2022/07/31 16:48:00;;;;;;;0.10;0.00;;;19.20;99.90;;;;;;4844259;29;20070;-94
2022/07/31 16:50:26;;;;;;;0.00;0.00;;;19.20;99.90;;;;;;4850182;29;20065;-94
2022/07/31 16:52:52;;;;;;;0.00;0.00;;;19.20;99.90;;;;;;4823895;29;20053;-93
2022/07/31 16:55:18;;;;;;;0.10;0.10;;;18.40;99.90;;;;;;4823119;29;20060;-94
2022/07/31 16:57:51;;;;;;;0.20;0.10;;;19.20;99.90;;;;;;4852207;29;20043;-93
2022/07/31 17:00:17;;;;;;;0.10;0.10;;;19.20;99.90;;;;;;4827570;29;20050;-93
2022/07/31 17:05:31;;;;;;;0.08;0.00;;;19.20;99.90;;;;;;4844980;29;20053;-91
2022/07/31 17:08:02;;;;;;;0.85;0.10;;;19.20;99.90;;;;;;4870761;29;20501;-94
2022/07/31 17:10:31;;;;;;;0.10;0.10;;;19.10;99.90;;;;;;4840788;29;20097;-92
2022/07/31 17:12:57;;;;;;;0.00;0.00;;;19.10;99.90;;;;;;4846224;29;20057;-92
2022/07/31 17:15:25;;;;;;;0.00;0.00;;;19.10;99.90;;;;;;4850358;29;20113;-91
2022/07/31 17:17:51;;;;;;;0.00;0.00;;;19.10;99.90;;;;;;4825164;29;20088;-92
2022/07/31 17:20:22;;;;;;;0.03;0.00;;;19.10;99.90;;;;;;4823238;29;20084;-91
2022/07/31 17:22:51;;;;;;;0.20;0.20;;;19.20;99.90;;;;;;4851017;29;20049;-94
2022/07/31 17:25:18;;;;;;;0.00;0.00;;;19.20;99.90;;;;;;4841693;29;20054;-92
2022/07/31 17:27:44;;;;;;;0.00;0.00;;;19.10;99.90;;;;;;4829414;29;20109;-90
2022/07/31 17:30:14;;;;;;;0.00;0.00;;;19.10;99.90;;;;;;4844400;29;20049;-90
2022/07/31 17:32:40;;;;;;;0.10;0.00;;;19.20;99.90;;;;;;4843257;29;20128;-91
2022/07/31 17:35:07;;;;;;;0.55;0.05;;;19.10;99.90;;;;;;4859470;29;20041;-91
2022/07/31 17:37:33;;;;;;;0.00;0.00;;;19.20;99.90;;;;;;4844720;29;20081;-93
2022/07/31 17:40:02;;;;;;;0.10;0.00;;;19.10;99.90;;;;;;4848920;29;20079;-92
2022/07/31 17:42:30;;;;;;;0.00;0.00;;;19.10;99.90;;;;;;4827205;29;20527;-92
2022/07/31 17:44:57;;;;;;;0.10;0.10;;;19.10;99.90;;;;;;4843655;29;20056;-93
2022/07/31 17:47:24;;;;;;;0.00;0.00;;;19.10;99.90;;;;;;4868605;29;20091;-84
2022/07/31 17:49:52;;;;;;;0.00;0.00;;;19.10;99.90;;;;;;4844620;29;20080;-87
2022/07/31 17:52:19;;;;;;;0.10;0.10;;;19.10;99.90;;;;;;4843297;29;20057;-89
2022/07/31 17:54:50;;;;;;;0.00;0.00;;;19.10;99.90;;;;;;4843159;29;20081;-87
2022/07/31 17:57:15;;;;;;;0.10;0.10;;;19.10;99.90;;;;;;4850922;29;20096;-88
2022/07/31 17:59:43;;;;;;;0.00;0.00;;;19.10;99.90;;;;;;4827138;29;20478;-90
2022/07/31 18:02:09;;;;;;;0.00;0.00;;;19.10;99.90;;;;;;4842766;29;20508;-90
2022/07/31 18:04:36;;;;;;;0.00;0.00;;;19.00;99.90;;;;;;4825815;29;20079;-90
2022/07/31 18:07:04;;;;;;;0.00;0.00;;;19.00;99.90;;;;;;4843148;29;20053;-90
2022/07/31 18:09:30;;;;;;;0.00;0.00;;;19.10;99.90;;;;;;4842548;29;20037;-89
2022/07/31 18:11:56;;;;;;;0.03;0.00;;;19.00;99.90;;;;;;4841893;29;20089;-90
2022/07/31 18:14:25;;;;;;;;;;;19.00;99.90;;;;;;4841031;29;20424;-89
2022/07/31 18:16:51;;;;;;;0.05;0.00;;;19.00;99.90;;;;;;4843198;29;20018;-90
2022/07/31 18:19:17;;;;;;;0.00;0.00;;;18.90;99.90;;;;;;4841969;29;20045;-90
2022/07/31 18:21:43;;;;;;;0.10;0.03;;;19.00;99.90;;;;;;4849503;29;20408;-91
2022/07/31 18:24:08;;;;;;;0.70;0.10;;;18.90;99.90;;;;;;4851258;29;20101;-89
2022/07/31 18:26:34;;;;;;;0.00;0.00;;;18.90;99.90;;;;;;4839700;29;20049;-90
2022/07/31 18:29:00;;;;;;;0.45;0.10;;;18.90;99.90;;;;;;4824443;29;20088;-90
2022/07/31 18:31:27;;;;;;;0.10;0.10;;;18.90;99.90;;;;;;4826895;29;20061;-89
2022/07/31 18:33:52;;;;;;;0.10;0.10;;;18.90;99.90;;;;;;4853088;29;20038;-90
2022/07/31 18:36:19;;;;;;;0.55;0.10;;;18.90;99.90;;;;;;4841879;29;20056;-90
2022/07/31 18:38:45;;;;;;;0.55;0.15;;;18.90;99.90;;;;;;4851234;29;20061;-89
2022/07/31 18:41:10;;;;;;;0.10;0.10;;;18.90;99.90;;;;;;4828372;29;20049;-88
2022/07/31 18:43:36;;;;;;;0.20;0.17;;;18.90;99.90;;;;;;4828093;29;20044;-88
2022/07/31 18:46:03;;;;;;;0.00;0.00;;;18.90;99.90;;;;;;4811078;29;20049;-89
2022/07/31 18:48:28;;;;;;;0.10;0.10;;;18.90;99.90;;;;;;4852686;29;20046;-91
2022/07/31 18:50:54;;;;;;;0.05;0.05;;;18.80;99.90;;;;;;4850394;29;20060;-90
2022/07/31 18:53:20;;;;;;;0.35;0.30;;;18.80;99.90;;;;;;4812940;29;20405;-90
2022/07/31 18:55:46;;;;;;;0.32;0.30;;;18.80;99.90;;;;;;4841218;29;20046;-91
2022/07/31 18:58:12;;;;;;;0.20;0.20;;;18.90;99.90;;;;;;4811408;29;20052;-90
2022/07/31 19:00:38;;;;;;;0.10;0.10;;;18.80;99.90;;;;;;4864358;29;20053;-90
2022/07/31 19:03:04;;;;;;;0.22;0.03;;;18.80;99.90;;;;;;4841518;29;20064;-89
2022/07/31 19:05:30;;;;;;;0.25;0.20;;;18.80;99.90;;;;;;4842692;29;20057;-89
2022/07/31 19:07:56;;;;;;;0.25;0.10;;;18.90;99.90;;;;;;4819059;29;20045;-90
2022/07/31 19:10:22;;;;;;;0.40;0.10;;;19.00;99.90;;;;;;4827460;29;20057;-92
2022/07/31 19:12:47;;;;;;;0.10;0.10;;;18.90;99.90;;;;;;4853765;29;20109;-90
2022/07/31 19:15:13;;;;;;;0.08;0.00;;;18.90;99.90;;;;;;4859566;29;20072;-89
2022/07/31 19:17:41;;;;;;;0.13;0.13;;;18.80;99.90;;;;;;4855350;29;20140;-90
2022/07/31 19:20:10;;;;;;;0.05;0.05;;;18.80;99.90;;;;;;4828877;29;20133;-88
2022/07/31 19:22:38;;;;;;;0.20;0.10;;;18.80;99.90;;;;;;4828338;29;20053;-92
2022/07/31 19:25:05;;;;;;;0.00;0.00;;;18.80;99.90;;;;;;4830588;29;20109;-89
2022/07/31 19:27:31;;;;;;;0.30;0.15;;;18.70;99.90;;;;;;4842538;29;20038;-87
2022/07/31 19:29:57;;;;;;;0.08;0.03;;;18.80;99.90;;;;;;4827970;29;20409;-90
2022/07/31 19:32:22;;;;;;;0.00;0.00;;;18.70;99.90;;;;;;4841102;29;20051;-92
2022/07/31 19:34:48;;;;;;;0.20;0.10;;;18.70;99.90;;;;;;4839289;29;20128;-88
2022/07/31 19:37:17;;;;;;;0.13;0.13;;;18.70;99.90;;;;;;4830120;29;20060;-87
2022/07/31 19:39:42;;;;;;;0.00;0.00;;;18.60;99.90;;;;;;4824268;29;20056;-87
2022/07/31 19:42:08;;;;;;;0.00;0.00;;;18.60;99.90;;;;;;4846208;29;20049;-89
2022/07/31 19:44:34;;;;;;;0.10;0.08;;;18.60;99.90;;;;;;4812993;29;20393;-89
2022/07/31 19:46:59;;;;;;;0.55;0.05;;;18.60;99.90;;;;;;4828811;29;20481;-88
2022/07/31 19:49:25;;;;;;;0.00;0.00;;;18.50;99.90;;;;;;4836240;29;20049;-91
2022/07/31 19:51:53;;;;;;;0.98;0.35;;;18.50;99.90;;;;;;4841957;29;20077;-90
2022/07/31 19:54:19;;;;;;;0.00;0.00;;;18.50;99.90;;;;;;4827049;29;20407;-91
2022/07/31 19:56:45;;;;;;;0.00;0.00;;;18.50;99.90;;;;;;4813918;29;20041;-88
2022/07/31 19:59:10;;;;;;;0.08;0.00;;;18.40;99.90;;;;;;4815170;29;20129;-92
2022/07/31 20:01:46;;;;;;;0.00;0.00;;;19.00;99.90;;;;;;4821852;29;20050;-93
2022/07/31 20:04:12;;;;;;;0.00;0.00;;;17.40;99.90;;;;;;4827433;29;20050;-92
2022/07/31 20:06:43;;;;;;;0.82;0.15;;;18.40;99.90;;;;;;4827814;29;20401;-89
2022/07/31 20:09:09;;;;;;;0.00;0.00;;;18.40;99.90;;;;;;4843802;29;20503;-91
2022/07/31 20:11:34;;;;;;;0.00;0.00;;;18.40;99.90;;;;;;4855833;29;20102;-90
2022/07/31 20:14:00;;;;;;;0.00;0.00;;;18.30;99.90;;;;;;4821380;29;20057;-88
2022/07/31 20:16:26;;;;;;;0.00;0.00;;;18.40;99.90;;;;;;4835520;29;20062;-90
2022/07/31 20:19:00;;;;;;;0.00;0.00;;;18.00;99.90;;;;;;4832331;29;20485;-93
2022/07/31 20:21:31;;;;;;;0.10;0.10;;;18.30;99.90;;;;;;4818523;29;20061;-91
2022/07/31 20:24:01;;;;;;;0.10;0.10;;;18.30;99.90;;;;;;4817461;29;20132;-92
2022/07/31 20:26:29;;;;;;;0.10;0.10;;;18.30;99.90;;;;;;4857516;29;20081;-91
2022/07/31 20:28:55;;;;;;;0.00;0.00;;;18.30;99.90;;;;;;4849291;29;20607;-93
2022/07/31 20:31:21;;;;;;;0.00;0.00;;;18.30;99.90;;;;;;4831567;29;20053;-92
2022/07/31 20:33:51;;;;;;;0.10;0.10;;;18.20;99.90;;;;;;4816221;29;20488;-92
2022/07/31 20:36:17;;;;;;;0.08;0.08;;;18.30;99.90;;;;;;4831530;29;20049;-90
2022/07/31 20:38:46;;;;;;;0.00;0.00;;;18.20;99.90;;;;;;4858634;29;20512;-95
2022/07/31 20:41:12;;;;;;;0.00;0.00;;;18.30;99.90;;;;;;4844419;29;20060;-91
2022/07/31 20:43:37;;;;;;;0.00;0.00;;;18.20;99.90;;;;;;4814447;29;20141;-90
2022/07/31 20:46:03;;;;;;;0.10;0.10;;;18.30;99.90;;;;;;4829045;29;20050;-90
2022/07/31 20:48:33;;;;;;;0.43;0.20;;;18.20;99.90;;;;;;4839739;29;20045;-89
2022/07/31 20:51:01;;;;;;;0.00;0.00;;;18.20;99.90;;;;;;4832789;29;20143;-91
2022/07/31 20:53:30;;;;;;;0.55;0.10;;;18.20;99.90;;;;;;4835666;29;20148;-89
2022/07/31 20:55:56;;;;;;;0.00;0.00;;;17.40;99.90;;;;;;4825642;29;20085;-87
2022/07/31 20:58:25;;;;;;;0.00;0.00;;;18.20;99.90;;;;;;4830106;29;20045;-90
2022/07/31 21:00:54;;;;;;;0.00;0.00;;;18.20;99.90;;;;;;4845398;29;20501;-92
2022/07/31 21:03:20;;;;;;;0.00;0.00;;;17.40;99.90;;;;;;4829994;29;20523;-89
2022/07/31 21:05:47;;;;;;;0.03;0.00;;;18.20;99.90;;;;;;4846463;29;20053;-88
2022/07/31 21:08:15;;;;;;;0.00;0.00;;;18.20;99.90;;;;;;4844638;29;20511;-88
2022/07/31 21:10:44;;;;;;;0.00;0.00;;;18.10;99.90;;;;;;4829524;29;20046;-87
2022/07/31 21:13:10;;;;;;;0.00;0.00;;;18.10;99.90;;;;;;4844965;29;20077;-87
2022/07/31 21:15:46;;;;;;;0.00;0.00;;;18.20;99.90;;;;;;4844229;29;20053;-88
2022/07/31 21:18:34;;;;;;;0.10;0.10;;;18.20;99.90;;;;;;4845707;29;20053;-92
2022/07/31 21:21:00;;;;;;;0.00;0.00;;;18.10;99.90;;;;;;4849860;29;20807;-89
2022/07/31 21:23:26;;;;;;;0.08;0.08;;;18.10;99.90;;;;;;4828796;29;20068;-90